Time;durP1;ratioP1;P1;durP2;ratioP2;P2;SDS_P1;SDS_P2;PMS_P1;PMS_P2;Temp;Humidity;BMP_temperature;BMP_pressure;BME280_temperature;BME280_humidity;BME280_pressure;Samples;Min_cycle;Max_cycle;Signal;HPM_P1;HPM_P2
2023/09/27 00:00:23;;;;;;;4.72;3.55;;;12.50;99.90;;;;;;7375145;32;20568;-56
2023/09/27 00:04:25;;;;;;;6.62;3.60;;;12.50;99.90;;;;;;7377176;32;20148;-57
2023/09/27 00:08:27;;;;;;;4.72;3.35;;;12.40;99.90;;;;;;7381010;32;20106;-58
2023/09/27 00:12:29;;;;;;;7.28;3.92;;;12.40;99.90;;;;;;7374307;32;20129;-56
2023/09/27 00:16:30;;;;;;;4.15;3.28;;;12.30;99.90;;;;;;7377953;32;20241;-56
2023/09/27 00:20:32;;;;;;;5.65;4.07;;;12.30;99.90;;;;;;7370314;32;20177;-56
2023/09/27 00:24:34;;;;;;;6.20;4.00;;;12.40;99.90;;;;;;7379122;32;20849;-56
2023/09/27 00:28:36;;;;;;;5.62;3.85;;;12.30;99.90;;;;;;7377130;32;20133;-57
2023/09/27 00:32:38;;;;;;;4.60;3.50;;;12.40;99.90;;;;;;7373594;32;20107;-57
2023/09/27 00:36:40;;;;;;;7.10;4.00;;;12.40;99.90;;;;;;7378775;32;20103;-57
2023/09/27 00:40:48;;;;;;;4.30;3.70;;;12.30;99.90;;;;;;7366906;32;20130;-57
2023/09/27 00:44:50;;;;;;;5.80;3.85;;;12.30;99.90;;;;;;7372977;32;20137;-56
2023/09/27 00:48:52;;;;;;;6.32;4.40;;;12.30;99.90;;;;;;7372384;32;20294;-57
2023/09/27 00:52:55;;;;;;;9.63;4.28;;;12.30;99.90;;;;;;7369663;32;20118;-57
2023/09/27 00:56:56;;;;;;;4.85;4.20;;;12.20;99.90;;;;;;7372308;32;20168;-56
2023/09/27 01:00:59;;;;;;;7.62;4.45;;;12.10;99.90;;;;;;7374833;32;20114;-57
2023/09/27 01:05:01;;;;;;;6.18;4.00;;;12.10;99.90;;;;;;7370962;32;20214;-57
2023/09/27 01:09:03;;;;;;;9.40;5.10;;;12.20;99.90;;;;;;7374973;32;20137;-58
2023/09/27 01:13:05;;;;;;;7.25;4.10;;;12.20;99.90;;;;;;7374333;32;20137;-58
2023/09/27 01:17:08;;;;;;;5.95;4.10;;;12.10;99.90;;;;;;7378821;32;20242;-57
2023/09/27 01:21:10;;;;;;;4.65;3.83;;;12.10;99.90;;;;;;7377043;32;20106;-56
2023/09/27 01:25:17;;;;;;;5.18;3.80;;;12.00;99.90;;;;;;7376658;32;20259;-56
2023/09/27 01:29:18;;;;;;;6.07;4.10;;;12.10;99.90;;;;;;7369642;32;20111;-56
2023/09/27 01:33:20;;;;;;;5.80;4.15;;;12.00;99.90;;;;;;7381044;32;20577;-57
2023/09/27 01:37:22;;;;;;;4.55;4.03;;;11.90;99.90;;;;;;7380481;32;20243;-57
2023/09/27 01:41:24;;;;;;;6.22;3.65;;;11.90;99.90;;;;;;7375603;32;20178;-57
2023/09/27 01:45:29;;;;;;;6.18;4.40;;;11.90;99.90;;;;;;7382102;32;20703;-58
2023/09/27 01:49:31;;;;;;;5.68;4.35;;;11.80;99.90;;;;;;7380079;32;20797;-57
2023/09/27 01:53:32;;;;;;;5.47;4.07;;;11.80;99.90;;;;;;7379906;32;20159;-58
2023/09/27 01:57:34;;;;;;;4.70;4.18;;;11.70;99.90;;;;;;7381225;32;20123;-57
2023/09/27 02:01:36;;;;;;;5.95;4.15;;;11.70;99.90;;;;;;7383203;32;20190;-58
2023/09/27 02:05:38;;;;;;;7.43;3.83;;;11.70;99.90;;;;;;7376815;32;20941;-56
2023/09/27 02:09:39;;;;;;;4.82;4.03;;;11.70;99.90;;;;;;7377390;32;20498;-56
2023/09/27 02:13:41;;;;;;;5.37;3.72;;;11.60;99.90;;;;;;7379933;32;20132;-57
2023/09/27 02:17:43;;;;;;;5.37;3.78;;;11.50;99.90;;;;;;7379768;32;20202;-57
2023/09/27 02:21:45;;;;;;;7.50;3.87;;;11.60;99.90;;;;;;7380629;32;20107;-57
2023/09/27 02:25:56;;;;;;;4.05;3.33;;;11.50;99.90;;;;;;7380723;32;20118;-58
2023/09/27 02:29:58;;;;;;;8.75;3.87;;;11.40;99.90;;;;;;7373127;32;20103;-57
2023/09/27 02:34:00;;;;;;;5.00;4.00;;;11.40;99.90;;;;;;7376376;32;20119;-56
2023/09/27 02:38:02;;;;;;;6.80;3.83;;;11.40;99.90;;;;;;7375894;32;20209;-56
2023/09/27 02:42:04;;;;;;;6.35;3.78;;;11.30;99.90;;;;;;7380081;32;20225;-57
2023/09/27 02:46:07;;;;;;;5.80;4.15;;;11.30;99.90;;;;;;7372791;32;20127;-57
2023/09/27 02:50:10;;;;;;;4.45;3.72;;;11.20;99.90;;;;;;7382086;32;20130;-56
2023/09/27 02:54:14;;;;;;;5.50;4.00;;;11.30;99.90;;;;;;7381478;32;20118;-57
2023/09/27 02:58:16;;;;;;;6.65;3.80;;;11.10;99.90;;;;;;7371123;32;20155;-57
2023/09/27 03:02:20;;;;;;;4.65;3.97;;;11.20;99.90;;;;;;7372612;32;20613;-56
2023/09/27 03:06:22;;;;;;;7.22;4.20;;;11.10;99.90;;;;;;7378921;32;20118;-57
2023/09/27 03:10:23;;;;;;;4.62;4.12;;;11.10;99.90;;;;;;7369367;32;20649;-56
2023/09/27 03:14:25;;;;;;;5.35;4.28;;;11.10;99.90;;;;;;7367152;32;20137;-55
2023/09/27 03:18:27;;;;;;;5.28;4.18;;;11.10;99.90;;;;;;7379240;32;20133;-55
2023/09/27 03:22:29;;;;;;;5.10;4.20;;;11.10;99.90;;;;;;7371375;32;20264;-56
2023/09/27 03:26:30;;;;;;;10.02;4.80;;;11.00;99.90;;;;;;7377844;32;20180;-56
2023/09/27 03:30:32;;;;;;;5.32;4.10;;;10.90;99.90;;;;;;7379017;32;20107;-56
2023/09/27 03:34:34;;;;;;;4.37;3.85;;;11.00;99.90;;;;;;7375366;32;20202;-57
2023/09/27 03:38:36;;;;;;;4.82;3.87;;;10.90;99.90;;;;;;7377494;32;20234;-56
2023/09/27 03:42:39;;;;;;;5.40;4.10;;;10.90;99.90;;;;;;7378698;32;20119;-55
2023/09/27 03:46:41;;;;;;;7.15;4.12;;;11.00;99.90;;;;;;7378294;32;20091;-55
2023/09/27 03:50:43;;;;;;;6.12;3.95;;;11.00;99.90;;;;;;7376011;32;20193;-55
2023/09/27 03:54:44;;;;;;;5.68;4.90;;;10.90;99.90;;;;;;7378496;32;20123;-55
2023/09/27 03:58:46;;;;;;;5.80;4.75;;;10.90;99.90;;;;;;7374923;32;20285;-56
2023/09/27 04:02:48;;;;;;;4.50;3.87;;;10.90;99.90;;;;;;7372474;32;20152;-55
2023/09/27 04:06:51;;;;;;;5.87;3.95;;;10.90;99.90;;;;;;7380273;32;20130;-56
2023/09/27 04:10:53;;;;;;;6.80;4.15;;;10.90;99.90;;;;;;7375944;32;20127;-55
2023/09/27 04:14:55;;;;;;;8.15;4.10;;;10.80;99.90;;;;;;7373548;32;20277;-56
2023/09/27 04:18:58;;;;;;;6.68;4.55;;;10.80;99.90;;;;;;7376867;32;20118;-55
2023/09/27 04:23:02;;;;;;;5.68;4.35;;;10.80;99.90;;;;;;7373676;32;20119;-55
2023/09/27 04:27:04;;;;;;;5.28;4.40;;;10.80;99.90;;;;;;7376383;32;20209;-56
2023/09/27 04:31:05;;;;;;;4.70;4.18;;;10.80;99.90;;;;;;7372946;32;20125;-55
2023/09/27 04:35:08;;;;;;;5.35;4.10;;;10.70;99.90;;;;;;7368002;32;20168;-55
2023/09/27 04:39:18;;;;;;;7.00;4.20;;;10.60;99.90;;;;;;7370119;32;20246;-55
2023/09/27 04:43:20;;;;;;;5.47;4.72;;;10.60;99.90;;;;;;7375963;32;20164;-54
2023/09/27 04:47:22;;;;;;;5.97;4.93;;;10.60;99.90;;;;;;7378546;32;20129;-55
2023/09/27 04:51:23;;;;;;;8.27;5.05;;;10.60;99.90;;;;;;7370535;32;20251;-55
2023/09/27 04:55:25;;;;;;;6.62;4.60;;;10.60;99.90;;;;;;7371113;32;20725;-55
2023/09/27 04:59:27;;;;;;;4.95;4.30;;;10.60;99.90;;;;;;7373454;32;20134;-55
2023/09/27 05:03:29;;;;;;;7.10;4.55;;;10.50;99.90;;;;;;7376464;32;20133;-55
2023/09/27 05:07:31;;;;;;;6.07;5.00;;;10.40;99.90;;;;;;7373992;32;20110;-55
2023/09/27 05:11:33;;;;;;;6.40;4.72;;;10.40;99.90;;;;;;7376095;32;20123;-55
2023/09/27 05:15:35;;;;;;;5.70;4.32;;;10.40;99.90;;;;;;7374465;32;20244;-56
2023/09/27 05:19:36;;;;;;;10.73;4.57;;;10.40;99.90;;;;;;7369829;32;20282;-55
2023/09/27 05:23:38;;;;;;;8.15;4.47;;;10.40;99.90;;;;;;7372346;32;20142;-55
2023/09/27 05:27:40;;;;;;;6.22;4.07;;;10.30;99.90;;;;;;7375848;32;20503;-55
2023/09/27 05:31:43;;;;;;;9.70;4.97;;;10.20;99.90;;;;;;7369462;32;20281;-56
2023/09/27 05:35:50;;;;;;;8.02;4.97;;;10.30;99.90;;;;;;7362638;32;20124;-55
2023/09/27 05:39:51;;;;;;;7.20;4.78;;;10.20;99.90;;;;;;7374801;32;20586;-58
2023/09/27 05:43:53;;;;;;;6.75;4.57;;;10.20;99.90;;;;;;7373091;32;20225;-57
2023/09/27 05:47:55;;;;;;;18.67;14.38;;;10.20;99.90;;;;;;7372642;32;20287;-57
2023/09/27 05:51:57;;;;;;;12.50;7.75;;;10.30;99.90;;;;;;7365144;32;20116;-58
2023/09/27 05:56:03;;;;;;;19.33;12.90;;;10.30;99.90;;;;;;7366183;32;20599;-57
2023/09/27 06:00:15;;;;;;;8.43;6.55;;;10.30;99.90;;;;;;7369430;32;20201;-55
2023/09/27 06:04:17;;;;;;;8.13;5.12;;;10.30;99.90;;;;;;7372010;32;20179;-57
2023/09/27 06:08:19;;;;;;;7.93;6.35;;;10.40;99.90;;;;;;7368423;32;20111;-55
2023/09/27 06:12:20;;;;;;;6.85;5.03;;;10.50;99.90;;;;;;7371084;32;20103;-56
2023/09/27 06:16:22;;;;;;;9.68;5.90;;;10.70;99.90;;;;;;7369795;32;20098;-56
2023/09/27 06:20:29;;;;;;;6.57;5.68;;;10.90;99.90;;;;;;7373858;32;20627;-56
2023/09/27 06:24:32;;;;;;;8.40;5.87;;;11.10;99.90;;;;;;7369681;32;20300;-56
2023/09/27 06:28:36;;;;;;;8.43;5.90;;;11.40;99.90;;;;;;7363298;32;20246;-56
2023/09/27 06:32:38;;;;;;;6.55;4.85;;;11.50;99.90;;;;;;7372171;32;20237;-57
2023/09/27 06:36:40;;;;;;;6.18;5.43;;;11.70;99.90;;;;;;7377106;32;20505;-56
2023/09/27 06:40:41;;;;;;;7.90;5.53;;;11.80;99.90;;;;;;7377365;32;20151;-57
2023/09/27 06:44:43;;;;;;;7.47;5.32;;;11.90;99.90;;;;;;7378625;32;20102;-56
2023/09/27 06:48:45;;;;;;;6.62;5.62;;;11.90;99.90;;;;;;7378332;32;20253;-55
2023/09/27 06:52:47;;;;;;;7.62;5.93;;;12.00;99.90;;;;;;7373937;32;20148;-57
2023/09/27 06:56:49;;;;;;;8.25;5.65;;;12.20;99.90;;;;;;7379374;32;20107;-56
2023/09/27 07:00:52;;;;;;;6.15;5.28;;;12.30;99.90;;;;;;7376125;32;20201;-56
2023/09/27 07:04:54;;;;;;;10.48;5.78;;;12.40;99.90;;;;;;7378845;32;20132;-56
2023/09/27 07:08:57;;;;;;;8.88;5.75;;;12.40;99.90;;;;;;7378832;32;20135;-56
2023/09/27 07:13:00;;;;;;;7.43;5.60;;;12.50;99.90;;;;;;7371278;32;20151;-56
2023/09/27 07:17:02;;;;;;;7.50;5.25;;;12.60;99.90;;;;;;7376375;32;20125;-58
2023/09/27 07:21:09;;;;;;;7.05;5.35;;;12.80;99.90;;;;;;7378452;32;20260;-57
2023/09/27 07:25:18;;;;;;;;;;;13.00;99.90;;;;;;7376910;32;20218;-56
2023/09/27 07:29:19;;;;;;;8.40;5.47;;;13.20;99.90;;;;;;7368723;32;20061;-57
2023/09/27 07:33:21;;;;;;;8.27;5.57;;;13.40;99.90;;;;;;7375579;32;20142;-56
2023/09/27 07:37:23;;;;;;;8.50;5.32;;;13.60;99.90;;;;;;7379459;32;20106;-57
2023/09/27 07:41:25;;;;;;;7.78;5.90;;;13.80;99.90;;;;;;7372612;32;20224;-56
2023/09/27 07:45:32;;;;;;;7.72;5.70;;;14.10;99.90;;;;;;7375758;32;20529;-56
2023/09/27 07:49:34;;;;;;;9.70;6.40;;;14.40;99.90;;;;;;7375057;32;20314;-57
2023/09/27 07:53:37;;;;;;;12.60;5.85;;;14.80;99.90;;;;;;7371357;32;20146;-56
2023/09/27 07:57:42;;;;;;;5.55;4.85;;;15.00;99.90;;;;;;7378349;32;20228;-57
2023/09/27 08:01:44;;;;;;;6.15;5.15;;;15.40;99.90;;;;;;7370025;32;20111;-56
2023/09/27 08:05:46;;;;;;;7.57;4.95;;;15.80;99.90;;;;;;7369500;32;20110;-56
2023/09/27 08:09:48;;;;;;;9.07;4.97;;;16.00;99.90;;;;;;7373804;32;20229;-57
2023/09/27 08:13:49;;;;;;;4.80;3.97;;;16.20;99.90;;;;;;7377538;32;20322;-58
2023/09/27 08:17:52;;;;;;;7.65;4.05;;;16.50;99.90;;;;;;7374463;32;20524;-56
2023/09/27 08:21:55;;;;;;;7.60;3.60;;;16.80;99.90;;;;;;7371201;32;20175;-57
2023/09/27 08:25:57;;;;;;;7.00;3.78;;;17.00;99.90;;;;;;7375830;32;20111;-58
2023/09/27 08:30:00;;;;;;;5.95;3.37;;;17.30;99.90;;;;;;7292128;32;20462;-57
2023/09/27 08:34:03;;;;;;;8.55;4.10;;;17.50;99.90;;;;;;7298715;32;20116;-56
2023/09/27 08:38:04;;;;;;;4.32;3.50;;;17.80;99.90;;;;;;7297147;32;20542;-57
2023/09/27 08:42:06;;;;;;;8.48;3.22;;;18.00;99.90;;;;;;7296787;32;20147;-57
2023/09/27 08:46:09;;;;;;;6.65;3.00;;;18.00;99.90;;;;;;7297223;32;20120;-56
2023/09/27 08:50:13;;;;;;;5.82;3.40;;;18.10;99.90;;;;;;7296650;32;20116;-56
2023/09/27 08:54:17;;;;;;;5.97;3.40;;;18.10;99.90;;;;;;7297051;32;20203;-55
2023/09/27 08:58:19;;;;;;;5.82;3.55;;;18.20;99.90;;;;;;7297917;32;20168;-56
2023/09/27 09:02:24;;;;;;;3.78;2.65;;;18.40;99.90;;;;;;7296755;32;20143;-55
2023/09/27 09:06:28;;;;;;;8.30;2.97;;;18.70;99.90;;;;;;7295268;32;20560;-56
2023/09/27 09:10:30;;;;;;;6.95;3.12;;;19.00;99.90;;;;;;7298502;32;20241;-56
2023/09/27 09:14:43;;;;;;;7.47;2.95;;;19.10;99.90;;;;;;7299945;32;20194;-56
2023/09/27 09:18:47;;;;;;;4.90;2.97;;;19.60;99.90;;;;;;7298429;32;20222;-56
2023/09/27 09:22:54;;;;;;;3.65;2.70;;;20.10;99.90;;;;;;7297300;32;20151;-57
2023/09/27 09:27:07;;;;;;;7.62;3.20;;;20.50;99.90;;;;;;7299515;32;20108;-58
2023/09/27 09:31:25;;;;;;;5.28;2.70;;;20.90;99.90;;;;;;7293227;32;20122;-57
2023/09/27 09:35:31;;;;;;;6.53;3.10;;;21.60;99.90;;;;;;7294991;32;20139;-58
2023/09/27 09:39:33;;;;;;;4.57;2.60;;;22.30;99.90;;;;;;7294441;32;20509;-57
2023/09/27 09:43:39;;;;;;;3.95;2.62;;;22.80;99.90;;;;;;7297997;32;20559;-58
2023/09/27 09:47:46;;;;;;;4.87;2.33;;;23.00;99.90;;;;;;7297517;32;20158;-56
2023/09/27 09:51:50;;;;;;;5.50;1.95;;;23.50;99.90;;;;;;7294124;32;20168;-56
2023/09/27 09:55:53;;;;;;;5.85;2.05;;;25.20;99.90;;;;;;7299650;32;20187;-56
2023/09/27 10:00:17;;;;;;;5.32;1.87;;;27.00;99.90;;;;;;7303348;32;20254;-56
2023/09/27 10:04:21;;;;;;;4.93;2.10;;;28.50;99.90;;;;;;7303276;32;20108;-56
2023/09/27 10:08:25;;;;;;;3.15;2.10;;;28.60;99.90;;;;;;7303174;32;20211;-56
2023/09/27 10:12:28;;;;;;;3.62;1.92;;;28.90;99.90;;;;;;7298088;32;20175;-56
2023/09/27 10:16:31;;;;;;;4.72;2.08;;;28.80;99.90;;;;;;7298248;32;20116;-55
2023/09/27 10:20:32;;;;;;;4.93;1.90;;;28.30;99.90;;;;;;7298696;32;20130;-56
2023/09/27 10:24:41;;;;;;;4.47;1.80;;;27.60;99.90;;;;;;7294428;32;20139;-56
2023/09/27 10:29:03;;;;;;;3.62;2.00;;;26.50;99.90;;;;;;7298439;32;20111;-56
2023/09/27 10:33:15;;;;;;;2.53;1.60;;;25.50;99.90;;;;;;7294673;32;20116;-57
2023/09/27 10:37:57;;;;;;;2.58;1.80;;;24.70;99.90;;;;;;7299244;32;20185;-57
2023/09/27 10:41:59;;;;;;;5.35;2.20;;;23.90;99.90;;;;;;7298118;32;20124;-58
2023/09/27 10:46:04;;;;;;;5.37;2.40;;;23.20;99.90;;;;;;7299639;32;20164;-55
2023/09/27 10:50:06;;;;;;;3.53;2.40;;;22.70;99.90;;;;;;7301020;32;20582;-57
2023/09/27 10:54:08;;;;;;;8.82;2.10;;;22.40;99.90;;;;;;7303160;32;20149;-56
2023/09/27 10:58:17;;;;;;;5.10;2.40;;;22.30;99.90;;;;;;7295533;32;20108;-56
2023/09/27 11:02:31;;;;;;;4.28;2.10;;;22.40;99.90;;;;;;7296937;32;20224;-56
2023/09/27 11:06:33;;;;;;;3.40;1.90;;;22.40;99.90;;;;;;7299904;32;20495;-57
2023/09/27 11:10:35;;;;;;;3.87;2.50;;;22.50;99.90;;;;;;7300691;32;20112;-56
2023/09/27 11:14:44;;;;;;;3.95;2.10;;;22.50;99.90;;;;;;7302957;32;20133;-56
2023/09/27 11:18:56;;;;;;;4.40;2.47;;;22.80;99.90;;;;;;7295932;32;20205;-58
2023/09/27 11:22:58;;;;;;;3.17;2.20;;;23.20;99.90;;;;;;7298724;32;20116;-57
2023/09/27 11:27:00;;;;;;;3.92;2.50;;;23.30;99.90;;;;;;7293172;32;20333;-57
2023/09/27 11:31:04;;;;;;;4.57;2.30;;;23.20;99.90;;;;;;7292730;32;20100;-57
2023/09/27 11:35:08;;;;;;;2.87;1.77;;;23.10;99.90;;;;;;7293149;32;20563;-56
2023/09/27 11:39:11;;;;;;;3.15;1.80;;;23.00;99.90;;;;;;7297633;32;20112;-56
2023/09/27 11:43:12;;;;;;;5.30;1.95;;;23.10;99.90;;;;;;7292574;32;20196;-57
2023/09/27 11:47:14;;;;;;;4.60;1.60;;;23.00;99.90;;;;;;7298763;32;20139;-56
2023/09/27 11:51:16;;;;;;;4.15;1.60;;;23.10;99.90;;;;;;7299618;32;20242;-56
2023/09/27 11:55:18;;;;;;;3.40;1.90;;;23.30;99.90;;;;;;7293943;32;20104;-56
2023/09/27 11:59:20;;;;;;;2.80;1.73;;;23.60;99.90;;;;;;7297895;32;20522;-56
2023/09/27 12:03:22;;;;;;;4.05;1.65;;;23.60;99.90;;;;;;7294412;32;20385;-56
2023/09/27 12:07:24;;;;;;;2.22;1.58;;;23.30;99.90;;;;;;7295859;32;20122;-56
2023/09/27 12:11:26;;;;;;;2.78;1.67;;;23.70;99.90;;;;;;7295567;32;20208;-58
2023/09/27 12:15:28;;;;;;;2.62;1.40;;;23.80;99.90;;;;;;7298544;32;20784;-57
2023/09/27 12:19:34;;;;;;;2.47;1.55;;;23.80;99.90;;;;;;7295330;32;20226;-56
2023/09/27 12:23:36;;;;;;;3.50;1.60;;;23.90;99.90;;;;;;7301516;32;20215;-55
2023/09/27 12:27:37;;;;;;;3.58;1.83;;;24.10;99.90;;;;;;7300282;32;20134;-56
2023/09/27 12:31:39;;;;;;;3.55;1.70;;;24.00;99.90;;;;;;7297400;32;20104;-57
2023/09/27 12:35:46;;;;;;;3.50;1.60;;;24.00;99.90;;;;;;7299533;32;20138;-56
2023/09/27 12:39:48;;;;;;;3.90;1.70;;;24.20;99.90;;;;;;7297504;32;20169;-56
2023/09/27 12:43:50;;;;;;;2.97;1.98;;;24.40;99.90;;;;;;7298085;32;20116;-55
2023/09/27 12:47:52;;;;;;;3.62;1.50;;;24.50;99.90;;;;;;7296110;32;20134;-55
2023/09/27 12:51:54;;;;;;;2.28;1.58;;;24.60;99.90;;;;;;7297504;32;20859;-57
2023/09/27 12:55:56;;;;;;;4.55;1.67;;;24.60;99.90;;;;;;7297252;32;20242;-56
2023/09/27 12:59:57;;;;;;;3.58;1.50;;;24.60;99.90;;;;;;7296081;32;20276;-57
2023/09/27 13:03:59;;;;;;;2.42;1.60;;;24.30;99.90;;;;;;7296248;32;20218;-57
2023/09/27 13:08:02;;;;;;;2.05;1.30;;;24.00;99.90;;;;;;7299052;32;20116;-55
2023/09/27 13:12:04;;;;;;;3.35;1.50;;;23.80;99.90;;;;;;7299757;32;20165;-57
2023/09/27 13:16:06;;;;;;;2.20;1.40;;;23.70;99.90;;;;;;7297719;32;20557;-55
2023/09/27 13:20:09;;;;;;;1.98;1.40;;;23.50;99.90;;;;;;7301305;32;20154;-56
2023/09/27 13:24:12;;;;;;;3.50;1.60;;;23.50;99.90;;;;;;7297677;32;20107;-55
2023/09/27 13:28:14;;;;;;;7.20;3.83;;;23.50;99.90;;;;;;7301026;32;20119;-58
2023/09/27 13:32:15;;;;;;;2.45;2.08;;;23.50;99.90;;;;;;7303872;32;20111;-58
2023/09/27 13:36:17;;;;;;;5.65;1.95;;;23.40;99.90;;;;;;7302974;32;20116;-56
2023/09/27 13:40:19;;;;;;;1.95;1.48;;;23.30;99.90;;;;;;7302264;32;20160;-56
2023/09/27 13:44:22;;;;;;;5.93;1.60;;;23.40;99.90;;;;;;7303093;32;20140;-55
2023/09/27 13:48:24;;;;;;;3.08;1.52;;;23.40;99.90;;;;;;7298644;32;20208;-55
2023/09/27 13:52:25;;;;;;;2.30;1.30;;;23.50;99.90;;;;;;7298183;32;20131;-56
2023/09/27 13:56:28;;;;;;;2.70;1.58;;;23.40;99.90;;;;;;7302488;32;20180;-56
2023/09/27 14:00:30;;;;;;;1.87;1.45;;;23.50;99.90;;;;;;7303347;32;20112;-56
2023/09/27 14:04:32;;;;;;;2.15;1.50;;;23.50;99.90;;;;;;7300817;32;20486;-56
2023/09/27 14:08:33;;;;;;;1.65;1.55;;;23.60;99.90;;;;;;7302293;32;20115;-55
2023/09/27 14:12:35;;;;;;;2.05;1.35;;;23.50;99.90;;;;;;7304419;32;20183;-55
2023/09/27 14:16:37;;;;;;;1.73;1.35;;;23.60;99.90;;;;;;7304290;32;20207;-56
2023/09/27 14:20:39;;;;;;;1.50;1.20;;;23.60;99.90;;;;;;7298240;32;20564;-56
2023/09/27 14:24:42;;;;;;;4.32;1.50;;;23.50;99.90;;;;;;7304575;32;20134;-56
2023/09/27 14:28:44;;;;;;;3.05;1.70;;;23.50;99.90;;;;;;7301348;32;20303;-57
2023/09/27 14:32:46;;;;;;;2.65;1.40;;;23.60;99.90;;;;;;7296525;32;20120;-58
2023/09/27 14:36:48;;;;;;;3.97;1.60;;;23.60;99.90;;;;;;7301842;32;20229;-56
2023/09/27 14:40:49;;;;;;;2.22;1.40;;;23.50;99.90;;;;;;7302568;32;20116;-57
2023/09/27 14:44:51;;;;;;;1.92;1.42;;;23.50;99.90;;;;;;7298298;32;20162;-58
2023/09/27 14:48:53;;;;;;;2.60;1.35;;;23.50;99.90;;;;;;7298258;32;20826;-57
2023/09/27 14:52:56;;;;;;;3.30;1.50;;;23.60;99.90;;;;;;7303715;32;20161;-58
2023/09/27 14:56:58;;;;;;;2.60;1.37;;;23.50;99.90;;;;;;7304436;32;20193;-58
2023/09/27 15:01:02;;;;;;;2.15;1.35;;;23.40;99.90;;;;;;7297913;32;20223;-57
2023/09/27 15:05:04;;;;;;;4.60;1.52;;;23.20;99.90;;;;;;7303328;32;20111;-57
2023/09/27 15:09:06;;;;;;;2.22;1.60;;;22.90;99.90;;;;;;7302135;32;20140;-58
2023/09/27 15:13:08;;;;;;;3.42;1.90;;;22.90;99.90;;;;;;7300601;32;20195;-57
2023/09/27 15:17:09;;;;;;;2.53;1.42;;;23.00;99.90;;;;;;7296190;32;20223;-56
2023/09/27 15:21:11;;;;;;;1.95;1.50;;;22.90;99.90;;;;;;7295206;32;20592;-56
2023/09/27 15:25:14;;;;;;;3.25;1.62;;;22.90;99.90;;;;;;7298606;32;20108;-56
2023/09/27 15:29:16;;;;;;;7.43;1.85;;;22.80;99.90;;;;;;7299881;32;20111;-56
2023/09/27 15:33:21;;;;;;;3.37;1.80;;;22.80;99.90;;;;;;7298861;32;20166;-57
2023/09/27 15:37:23;;;;;;;4.25;1.62;;;22.70;99.90;;;;;;7294969;32;20133;-56
2023/09/27 15:41:25;;;;;;;2.40;1.67;;;22.80;99.90;;;;;;7296126;32;20180;-57
2023/09/27 15:45:29;;;;;;;4.30;2.05;;;22.50;99.90;;;;;;7297194;32;20524;-57
2023/09/27 15:49:30;;;;;;;2.80;1.50;;;22.50;99.90;;;;;;7294570;32;20497;-57
2023/09/27 15:53:33;;;;;;;5.10;1.50;;;22.30;99.90;;;;;;7298352;32;20191;-56
2023/09/27 15:57:37;;;;;;;2.47;1.80;;;22.30;99.90;;;;;;7288901;32;20240;-57
2023/09/27 16:01:39;;;;;;;2.62;1.40;;;22.30;99.90;;;;;;7301915;32;20169;-58
2023/09/27 16:05:46;;;;;;;2.30;1.70;;;22.10;99.90;;;;;;7299853;32;20123;-57
2023/09/27 16:09:48;;;;;;;3.65;1.67;;;22.00;99.90;;;;;;7302728;32;20223;-58
2023/09/27 16:13:50;;;;;;;2.97;1.65;;;21.90;99.90;;;;;;7303015;32;20518;-57
2023/09/27 16:17:51;;;;;;;4.25;1.60;;;21.60;99.90;;;;;;7299212;32;20136;-57
2023/09/27 16:21:54;;;;;;;2.72;1.50;;;21.50;99.90;;;;;;7295108;32;20263;-57
2023/09/27 16:25:56;;;;;;;3.83;2.20;;;21.30;99.90;;;;;;7296802;32;20112;-58
2023/09/27 16:29:58;;;;;;;3.20;2.12;;;21.10;99.90;;;;;;7302623;32;20214;-58
2023/09/27 16:34:00;;;;;;;6.03;1.80;;;20.80;99.90;;;;;;7298920;32;20103;-57
2023/09/27 16:38:02;;;;;;;5.28;2.05;;;20.60;99.90;;;;;;7298735;32;20300;-56
2023/09/27 16:42:04;;;;;;;3.80;2.42;;;20.40;99.90;;;;;;7296340;32;20156;-58
2023/09/27 16:46:07;;;;;;;3.50;1.92;;;20.10;99.90;;;;;;7297936;32;20563;-59
2023/09/27 16:50:10;;;;;;;5.12;2.20;;;19.80;99.90;;;;;;7294287;32;20557;-57
2023/09/27 16:54:12;;;;;;;2.78;1.90;;;19.50;99.90;;;;;;7290021;32;20119;-58
2023/09/27 16:58:13;;;;;;;5.47;2.62;;;19.40;99.90;;;;;;7295220;32;20116;-57
2023/09/27 17:02:15;;;;;;;9.57;2.80;;;19.20;99.90;;;;;;7294728;32;20258;-56
2023/09/27 17:06:20;;;;;;;7.10;2.80;;;19.00;99.90;;;;;;7295475;32;20116;-57
2023/09/27 17:10:22;;;;;;;4.78;2.70;;;18.70;99.90;;;;;;7301344;32;20152;-56
2023/09/27 17:14:24;;;;;;;8.02;3.22;;;18.60;99.90;;;;;;7296366;32;21258;-57
2023/09/27 17:18:26;;;;;;;5.72;3.22;;;18.40;99.90;;;;;;7296623;32;20119;-54
2023/09/27 17:22:28;;;;;;;4.82;2.90;;;18.20;99.90;;;;;;7296625;32;20116;-55
2023/09/27 17:26:29;;;;;;;17.50;12.32;;;18.00;99.90;;;;;;7297081;32;20111;-57
2023/09/27 17:30:31;;;;;;;7.32;5.07;;;17.90;99.90;;;;;;7298852;32;20175;-58
2023/09/27 17:34:33;;;;;;;6.82;3.45;;;17.70;99.90;;;;;;7293145;32;20181;-57
2023/09/27 17:38:35;;;;;;;4.82;3.30;;;17.50;99.90;;;;;;7298424;32;20112;-63
2023/09/27 17:42:38;;;;;;;5.87;3.30;;;17.50;99.90;;;;;;7286824;32;20142;-58
2023/09/27 17:46:39;;;;;;;9.23;3.28;;;17.30;99.90;;;;;;7298262;32;20170;-56
2023/09/27 17:50:41;;;;;;;6.57;3.90;;;17.30;99.90;;;;;;7296957;32;20112;-56
2023/09/27 17:54:43;;;;;;;6.50;3.40;;;17.10;99.90;;;;;;7295575;32;20116;-56
2023/09/27 17:58:45;;;;;;;7.12;3.67;;;17.00;99.90;;;;;;7297109;32;20191;-55
2023/09/27 18:02:47;;;;;;;5.57;3.62;;;16.90;99.90;;;;;;7289831;32;20108;-56
2023/09/27 18:06:49;;;;;;;4.50;3.53;;;16.90;99.90;;;;;;7299366;32;20215;-55
2023/09/27 18:10:50;;;;;;;5.12;3.80;;;16.80;99.90;;;;;;7297313;32;20284;-56
2023/09/27 18:14:52;;;;;;;7.72;4.00;;;16.70;99.90;;;;;;7292166;32;20535;-55
2023/09/27 18:18:54;;;;;;;5.60;3.70;;;16.80;99.90;;;;;;7304153;32;20789;-56
2023/09/27 18:22:56;;;;;;;8.15;4.32;;;16.80;99.90;;;;;;7304099;32;20135;-55
2023/09/27 18:26:58;;;;;;;6.80;4.20;;;16.70;99.90;;;;;;7299706;32;20458;-55
2023/09/27 18:30:59;;;;;;;8.02;4.28;;;16.70;99.90;;;;;;7299662;32;20104;-55
2023/09/27 18:35:01;;;;;;;5.68;3.80;;;16.60;99.90;;;;;;7299126;32;20210;-55
2023/09/27 18:39:03;;;;;;;10.13;4.80;;;16.40;99.90;;;;;;7301033;32;20108;-55
2023/09/27 18:43:05;;;;;;;8.80;3.55;;;16.20;99.90;;;;;;7296739;32;20844;-56
2023/09/27 18:47:07;;;;;;;7.68;4.15;;;16.10;99.90;;;;;;7301059;32;20115;-56
2023/09/27 18:51:09;;;;;;;5.90;4.28;;;16.10;99.90;;;;;;7300192;32;20234;-55
2023/09/27 18:55:11;;;;;;;10.57;4.68;;;16.10;99.90;;;;;;7297661;32;20229;-55
2023/09/27 18:59:13;;;;;;;7.57;4.40;;;16.10;99.90;;;;;;7300848;32;20230;-56
2023/09/27 19:03:15;;;;;;;5.45;4.50;;;16.20;99.90;;;;;;7299885;32;20176;-54
2023/09/27 19:07:17;;;;;;;6.70;4.40;;;16.30;99.90;;;;;;7299887;32;20134;-56
2023/09/27 19:11:19;;;;;;;9.40;4.60;;;16.40;99.90;;;;;;7301712;32;20140;-55
2023/09/27 19:15:21;;;;;;;6.78;4.18;;;16.60;99.90;;;;;;7295385;32;20132;-55
2023/09/27 19:19:23;;;;;;;4.82;3.80;;;16.70;99.90;;;;;;7291446;32;20198;-55
2023/09/27 19:23:25;;;;;;;4.47;3.50;;;16.90;99.90;;;;;;7299399;32;20134;-55
2023/09/27 19:27:27;;;;;;;4.07;3.47;;;17.00;99.90;;;;;;7295742;32;20207;-55
2023/09/27 19:31:29;;;;;;;3.85;3.20;;;17.20;99.90;;;;;;7301063;32;20093;-55
2023/09/27 19:35:31;;;;;;;5.40;3.42;;;17.40;99.90;;;;;;7299058;32;20115;-56
2023/09/27 19:39:32;;;;;;;6.25;2.92;;;17.60;99.90;;;;;;7296398;32;20508;-55
2023/09/27 19:43:34;;;;;;;3.80;2.70;;;17.60;99.90;;;;;;7299460;32;20111;-55
2023/09/27 19:47:36;;;;;;;6.55;3.55;;;17.70;99.90;;;;;;7298008;32;20209;-55
2023/09/27 19:51:38;;;;;;;4.55;2.67;;;17.70;99.90;;;;;;7296402;32;20126;-55
2023/09/27 19:55:40;;;;;;;6.60;2.80;;;17.70;99.90;;;;;;7302926;32;20344;-56
2023/09/27 19:59:42;;;;;;;3.92;2.80;;;17.80;99.90;;;;;;7297923;32;20171;-55
2023/09/27 20:03:44;;;;;;;5.00;3.15;;;17.90;99.90;;;;;;7301771;32;20182;-55
2023/09/27 20:07:47;;;;;;;6.18;2.90;;;18.00;99.90;;;;;;7297928;32;20108;-56
2023/09/27 20:11:49;;;;;;;5.95;2.80;;;18.10;99.90;;;;;;7301517;32;20587;-55
2023/09/27 20:15:52;;;;;;;3.05;2.53;;;18.10;99.90;;;;;;7298747;32;20107;-55
2023/09/27 20:19:57;;;;;;;4.00;3.00;;;18.10;99.90;;;;;;7299301;32;20107;-56
2023/09/27 20:24:01;;;;;;;5.10;3.05;;;18.10;99.90;;;;;;7288089;32;20181;-56
2023/09/27 20:28:04;;;;;;;5.18;3.03;;;18.10;99.90;;;;;;7301109;32;20108;-56
2023/09/27 20:32:06;;;;;;;4.40;2.92;;;18.20;99.90;;;;;;7298438;32;20458;-56
2023/09/27 20:36:12;;;;;;;5.00;2.90;;;18.20;99.90;;;;;;7296030;32;20478;-56
2023/09/27 20:40:15;;;;;;;6.10;3.17;;;18.20;99.90;;;;;;7294516;32;20138;-56
2023/09/27 20:44:17;;;;;;;2.95;2.65;;;18.10;99.90;;;;;;7294587;32;20104;-56
2023/09/27 20:48:19;;;;;;;3.15;2.50;;;18.10;99.90;;;;;;7294333;32;20537;-56
2023/09/27 20:52:21;;;;;;;3.90;3.00;;;18.00;99.90;;;;;;7291714;32;20175;-55
2023/09/27 20:56:23;;;;;;;4.93;2.80;;;18.10;99.90;;;;;;7296537;32;20112;-55
2023/09/27 21:00:26;;;;;;;3.97;3.03;;;18.10;99.90;;;;;;7295539;32;20138;-57